Time;durP1;ratioP1;P1;durP2;ratioP2;P2;SDS_P1;SDS_P2;PMS_P1;PMS_P2;Temp;Humidity;BMP_temperature;BMP_pressure;BME280_temperature;BME280_humidity;BME280_pressure;Samples;Min_cycle;Max_cycle;Signal;HPM_P1;HPM_P2
2021/08/14 00:04:00;;;;;;;5.95;3.05;;;18.70;99.90;;;;;;10488201;28;20404;-68
2021/08/14 00:09:02;;;;;;;6.43;3.53;;;18.50;99.90;;;;;;10518424;28;20056;-68
2021/08/14 00:14:03;;;;;;;7.30;3.17;;;18.40;99.90;;;;;;10528474;28;20047;-68
2021/08/14 00:19:05;;;;;;;7.75;4.05;;;18.40;99.90;;;;;;10519656;28;20047;-68
2021/08/14 00:24:07;;;;;;;5.80;3.40;;;18.30;99.90;;;;;;10514191;28;20063;-68
2021/08/14 00:29:08;;;;;;;9.10;3.47;;;18.20;99.90;;;;;;10523199;28;20066;-68
2021/08/14 00:34:13;;;;;;;6.97;3.53;;;18.20;99.90;;;;;;10521067;28;20108;-68
2021/08/14 00:39:15;;;;;;;5.63;3.25;;;18.20;99.90;;;;;;10523857;28;20591;-68
2021/08/14 00:44:18;;;;;;;6.45;3.58;;;18.00;99.90;;;;;;10534558;28;20144;-68
2021/08/14 00:49:20;;;;;;;6.45;3.55;;;17.90;99.90;;;;;;10522073;28;20076;-68
2021/08/14 00:54:23;;;;;;;8.75;3.85;;;17.90;99.90;;;;;;10526616;28;20556;-68
2021/08/14 00:59:30;;;;;;;6.70;3.72;;;17.90;99.90;;;;;;10519463;28;20112;-68
2021/08/14 01:04:34;;;;;;;6.40;3.67;;;17.70;99.90;;;;;;10525648;28;20050;-68
2021/08/14 01:09:36;;;;;;;6.95;3.30;;;17.70;99.90;;;;;;10525268;28;20051;-68
2021/08/14 01:14:38;;;;;;;13.68;3.42;;;17.60;99.90;;;;;;10525400;28;20083;-68
2021/08/14 01:19:41;;;;;;;7.07;3.88;;;17.60;99.90;;;;;;10529551;28;20108;-68
2021/08/14 01:24:43;;;;;;;5.47;3.13;;;17.40;99.90;;;;;;10528810;28;20112;-68
2021/08/14 01:29:45;;;;;;;6.10;3.85;;;17.50;99.90;;;;;;10534569;28;20622;-68
2021/08/14 01:34:48;;;;;;;5.15;3.72;;;17.40;99.90;;;;;;10502544;28;20105;-68
2021/08/14 01:39:49;;;;;;;8.00;3.33;;;17.40;99.90;;;;;;10506365;28;20105;-68
2021/08/14 01:44:52;;;;;;;7.82;4.13;;;17.40;99.90;;;;;;10517091;28;20055;-68
2021/08/14 01:49:53;;;;;;;8.25;2.92;;;17.30;99.90;;;;;;10510216;28;20401;-69
2021/08/14 01:54:55;;;;;;;9.80;3.30;;;17.30;99.90;;;;;;10523108;28;20134;-68
2021/08/14 01:59:56;;;;;;;6.53;3.05;;;17.30;99.90;;;;;;10528514;28;20075;-68
2021/08/14 02:04:58;;;;;;;9.88;4.10;;;17.30;99.90;;;;;;10528743;28;20104;-68
2021/08/14 02:10:00;;;;;;;12.57;3.50;;;17.30;99.90;;;;;;10527328;28;20048;-68
2021/08/14 02:15:04;;;;;;;9.30;4.03;;;17.20;99.90;;;;;;10526869;28;20051;-68
2021/08/14 02:20:06;;;;;;;10.88;4.18;;;17.20;99.90;;;;;;10530975;28;20052;-68
2021/08/14 02:25:08;;;;;;;6.65;3.78;;;17.20;99.90;;;;;;10524740;28;20048;-68
2021/08/14 02:30:10;;;;;;;7.50;4.05;;;17.20;99.90;;;;;;10523452;28;20105;-68
2021/08/14 02:35:13;;;;;;;6.15;3.88;;;17.10;99.90;;;;;;10523955;28;20136;-68
2021/08/14 02:40:14;;;;;;;7.85;4.75;;;17.00;99.90;;;;;;10526240;28;20087;-68
2021/08/14 02:45:16;;;;;;;6.93;3.63;;;17.00;99.90;;;;;;10525245;28;20064;-68
2021/08/14 02:50:17;;;;;;;6.57;3.20;;;17.00;99.90;;;;;;10522049;28;20052;-68
2021/08/14 02:55:19;;;;;;;6.03;3.58;;;16.90;99.90;;;;;;10529128;28;20113;-68
2021/08/14 03:00:21;;;;;;;8.45;3.80;;;16.80;99.90;;;;;;10524776;28;20071;-68
2021/08/14 03:05:23;;;;;;;5.78;3.28;;;16.70;99.90;;;;;;10532101;28;20410;-68
2021/08/14 03:10:25;;;;;;;7.63;3.38;;;16.70;99.90;;;;;;10518121;28;20084;-68
2021/08/14 03:15:27;;;;;;;7.18;3.72;;;16.80;99.90;;;;;;10530046;28;20052;-68
2021/08/14 03:20:29;;;;;;;7.20;3.55;;;16.70;99.90;;;;;;10518162;28;20068;-68
2021/08/14 03:25:30;;;;;;;6.75;3.63;;;16.60;99.90;;;;;;10496910;28;20052;-68
2021/08/14 03:30:32;;;;;;;4.75;2.78;;;16.50;99.90;;;;;;10516899;28;20075;-68
2021/08/14 03:35:34;;;;;;;5.20;3.25;;;16.50;99.90;;;;;;10496562;28;20433;-68
2021/08/14 03:40:35;;;;;;;6.32;4.28;;;16.40;99.90;;;;;;10517580;28;20052;-68
2021/08/14 03:45:37;;;;;;;8.35;3.95;;;16.40;99.90;;;;;;10515805;28;20109;-68
2021/08/14 03:50:39;;;;;;;8.07;3.40;;;16.30;99.90;;;;;;10521398;28;20054;-68
2021/08/14 03:55:41;;;;;;;7.95;3.50;;;16.30;99.90;;;;;;10518787;28;20490;-68
2021/08/14 04:00:43;;;;;;;5.40;3.42;;;16.20;99.90;;;;;;10516090;28;20041;-68
2021/08/14 04:05:45;;;;;;;6.70;3.70;;;16.20;99.90;;;;;;10523252;28;20044;-68
2021/08/14 04:10:46;;;;;;;8.02;3.67;;;16.20;99.90;;;;;;10522884;28;20047;-68
2021/08/14 04:15:48;;;;;;;8.38;3.38;;;16.10;99.90;;;;;;10521966;28;21353;-65
2021/08/14 04:20:50;;;;;;;7.53;4.13;;;16.10;99.90;;;;;;10529816;28;20135;-65
2021/08/14 04:25:52;;;;;;;8.02;4.90;;;16.20;99.90;;;;;;10533445;28;20048;-65
2021/08/14 04:30:53;;;;;;;10.45;4.97;;;16.20;99.90;;;;;;10526983;28;20072;-65
2021/08/14 04:35:55;;;;;;;9.43;5.53;;;16.20;99.90;;;;;;10536581;28;20078;-65
2021/08/14 04:40:56;;;;;;;11.73;6.20;;;16.30;99.90;;;;;;10535424;28;20104;-65
2021/08/14 04:45:58;;;;;;;14.10;6.57;;;16.30;99.90;;;;;;10534134;28;20436;-65
2021/08/14 04:51:00;;;;;;;15.23;6.10;;;16.40;99.90;;;;;;10529766;28;20048;-65
2021/08/14 04:56:01;;;;;;;11.57;5.90;;;16.50;99.90;;;;;;10528547;28;20095;-65
2021/08/14 05:01:03;;;;;;;9.00;5.97;;;16.60;99.90;;;;;;10523785;28;20072;-65
2021/08/14 05:06:08;;;;;;;8.63;5.40;;;16.80;99.90;;;;;;10530466;28;20131;-65
2021/08/14 05:11:10;;;;;;;10.95;6.28;;;16.90;99.90;;;;;;10523948;28;20040;-65
2021/08/14 05:16:12;;;;;;;10.07;6.03;;;17.00;99.90;;;;;;10528865;28;20051;-65
2021/08/14 05:21:13;;;;;;;9.82;6.22;;;17.00;99.90;;;;;;10523321;28;20043;-66
2021/08/14 05:26:15;;;;;;;9.90;5.63;;;16.90;99.90;;;;;;10508968;28;20112;-65
2021/08/14 05:31:17;;;;;;;10.90;5.18;;;16.90;99.90;;;;;;10529689;28;20056;-65
2021/08/14 05:36:18;;;;;;;12.50;5.90;;;16.90;99.90;;;;;;10521468;28;20050;-65
2021/08/14 05:41:20;;;;;;;9.38;5.63;;;17.00;99.90;;;;;;10530522;28;20097;-65
2021/08/14 05:46:22;;;;;;;8.23;5.47;;;17.00;99.90;;;;;;10521745;28;20093;-65
2021/08/14 05:51:24;;;;;;;10.30;5.95;;;17.10;99.90;;;;;;10520698;28;20051;-65
2021/08/14 05:56:46;;;;;;;13.63;5.82;;;17.20;99.90;;;;;;10515577;28;20055;-65
2021/08/14 06:01:47;;;;;;;12.07;6.00;;;17.30;99.90;;;;;;10524715;28;20157;-65
2021/08/14 06:06:49;;;;;;;8.75;4.70;;;17.50;99.90;;;;;;10518317;28;20043;-65
2021/08/14 06:11:51;;;;;;;8.05;4.90;;;17.60;99.90;;;;;;10506597;28;20113;-65
2021/08/14 06:16:53;;;;;;;7.13;4.22;;;17.80;99.90;;;;;;10522879;28;20105;-65
2021/08/14 06:21:55;;;;;;;8.30;3.55;;;17.80;99.90;;;;;;10525934;28;20048;-65
2021/08/14 06:26:56;;;;;;;12.07;4.22;;;18.00;99.90;;;;;;10527573;28;20067;-65
2021/08/14 06:31:58;;;;;;;6.30;3.95;;;18.10;99.90;;;;;;10526322;28;20128;-65
2021/08/14 06:37:00;;;;;;;6.25;2.88;;;18.30;99.90;;;;;;10524569;28;20134;-65
2021/08/14 06:42:02;;;;;;;8.07;3.65;;;18.50;99.90;;;;;;10521117;28;20431;-66
2021/08/14 06:47:04;;;;;;;8.15;3.17;;;18.60;99.90;;;;;;10522178;28;20471;-66
2021/08/14 06:52:05;;;;;;;5.78;3.38;;;18.70;99.90;;;;;;10524206;28;20048;-65
2021/08/14 06:57:07;;;;;;;10.10;3.28;;;18.80;99.90;;;;;;10527956;28;20044;-65
2021/08/14 07:02:09;;;;;;;6.97;4.20;;;19.00;99.90;;;;;;10524037;28;20060;-65
2021/08/14 07:07:10;;;;;;;12.77;4.13;;;19.00;99.90;;;;;;10530262;28;20052;-66
2021/08/14 07:12:14;;;;;;;11.93;6.38;;;19.30;99.90;;;;;;10529209;28;20052;-65
2021/08/14 07:17:15;;;;;;;14.45;6.72;;;19.40;99.90;;;;;;10509307;28;20505;-68
2021/08/14 07:22:17;;;;;;;10.65;6.97;;;19.50;99.90;;;;;;10517331;28;20108;-68
2021/08/14 07:27:19;;;;;;;12.05;6.78;;;19.70;99.90;;;;;;10480857;28;20052;-69
2021/08/14 07:32:21;;;;;;;11.45;6.90;;;19.90;99.90;;;;;;10518367;28;20109;-69
2021/08/14 07:37:22;;;;;;;10.07;7.15;;;20.10;99.90;;;;;;10519265;28;20097;-69
2021/08/14 07:42:24;;;;;;;9.10;6.30;;;20.20;99.90;;;;;;10522323;28;20101;-69
2021/08/14 07:47:26;;;;;;;8.02;5.50;;;20.40;99.90;;;;;;10514950;28;20074;-69
2021/08/14 07:52:27;;;;;;;14.13;6.75;;;20.60;99.90;;;;;;10513992;28;20654;-69
2021/08/14 07:57:29;;;;;;;7.95;5.65;;;20.80;99.90;;;;;;10523820;28;20044;-68
2021/08/14 08:02:31;;;;;;;9.50;6.50;;;21.00;99.90;;;;;;10522602;28;20112;-68
2021/08/14 08:07:33;;;;;;;10.40;5.70;;;21.20;99.90;;;;;;10522201;28;20052;-68
2021/08/14 08:12:34;;;;;;;10.95;6.20;;;21.50;99.90;;;;;;10499951;28;20498;-68
2021/08/14 08:17:36;;;;;;;10.25;5.15;;;21.50;99.90;;;;;;10515611;28;20052;-67
2021/08/14 08:22:38;;;;;;;7.45;4.95;;;21.80;99.90;;;;;;10514256;28;20536;-66
2021/08/14 08:27:43;;;;;;;10.15;5.25;;;22.00;99.90;;;;;;10517839;28;20097;-60
2021/08/14 08:32:45;;;;;;;8.02;5.53;;;22.20;99.90;;;;;;10513341;28;20104;-60
2021/08/14 08:37:47;;;;;;;7.88;5.32;;;22.40;99.90;;;;;;10521225;28;20048;-60
2021/08/14 08:42:49;;;;;;;8.88;5.30;;;22.80;99.90;;;;;;10521276;28;20551;-60
2021/08/14 08:47:53;;;;;;;8.00;5.45;;;22.80;99.90;;;;;;10521931;28;20052;-61
2021/08/14 08:52:55;;;;;;;7.47;4.82;;;23.00;99.90;;;;;;10520447;28;20052;-61
2021/08/14 08:57:58;;;;;;;5.97;4.30;;;23.20;99.90;;;;;;10517056;28;20070;-61
2021/08/14 09:03:14;;;;;;;7.35;4.82;;;23.20;99.90;;;;;;10524792;28;20121;-61
2021/08/14 09:08:16;;;;;;;6.30;3.83;;;23.40;99.90;;;;;;10522509;28;20060;-61
2021/08/14 09:13:20;;;;;;;5.57;3.55;;;23.50;99.90;;;;;;10520726;28;20491;-61
2021/08/14 09:18:22;;;;;;;5.70;3.85;;;23.70;99.90;;;;;;10526745;28;20055;-61
2021/08/14 09:23:24;;;;;;;5.43;3.47;;;24.00;99.90;;;;;;10514617;28;20044;-61
2021/08/14 09:28:34;;;;;;;6.75;4.15;;;24.10;99.90;;;;;;10533416;28;20075;-60
2021/08/14 09:33:36;;;;;;;8.40;3.95;;;24.20;99.90;;;;;;10523737;28;20047;-61
2021/08/14 09:38:47;;;;;;;8.25;4.00;;;24.40;99.90;;;;;;10533577;28;20502;-60
2021/08/14 09:43:51;;;;;;;7.07;3.35;;;24.70;99.90;;;;;;10525717;28;20044;-61
2021/08/14 09:48:55;;;;;;;5.53;3.42;;;24.90;99.90;;;;;;10524413;28;20048;-61
2021/08/14 09:53:57;;;;;;;5.28;3.03;;;24.90;99.80;;;;;;10526976;28;20054;-61
2021/08/14 09:59:00;;;;;;;4.10;2.53;;;25.00;99.90;;;;;;10527002;28;20072;-61
2021/08/14 10:04:02;;;;;;;3.72;2.53;;;25.40;97.90;;;;;;10520291;28;20124;-64
2021/08/14 10:09:04;;;;;;;4.57;2.25;;;25.40;95.60;;;;;;10532898;28;20535;-66
2021/08/14 10:14:08;;;;;;;8.30;2.35;;;25.70;95.50;;;;;;10526349;28;20049;-64
2021/08/14 10:19:09;;;;;;;4.25;2.25;;;25.60;94.60;;;;;;10524807;28;20052;-63
2021/08/14 10:24:11;;;;;;;3.33;2.00;;;25.80;93.40;;;;;;10531118;28;20520;-64
2021/08/14 10:29:16;;;;;;;3.63;2.20;;;26.10;91.70;;;;;;10528365;28;20111;-62
2021/08/14 10:34:21;;;;;;;3.65;2.17;;;26.30;92.40;;;;;;10508336;28;20097;-65
2021/08/14 10:39:27;;;;;;;4.00;2.20;;;26.40;92.30;;;;;;10519802;28;20098;-65
2021/08/14 10:44:38;;;;;;;3.08;1.63;;;26.90;90.20;;;;;;10520734;28;20075;-60
2021/08/14 10:49:46;;;;;;;3.63;1.95;;;27.20;86.70;;;;;;10516157;28;20097;-61
2021/08/14 10:55:04;;;;;;;4.47;1.70;;;27.30;84.30;;;;;;10516511;28;20055;-67
2021/08/14 11:00:13;;;;;;;2.85;1.80;;;27.80;82.10;;;;;;10524715;28;20032;-66
2021/08/14 11:05:25;;;;;;;2.90;1.70;;;27.70;79.80;;;;;;10520785;28;20138;-67
2021/08/14 11:10:38;;;;;;;5.85;1.65;;;27.60;79.60;;;;;;10520821;28;20084;-66
2021/08/14 11:15:40;;;;;;;3.25;1.90;;;27.80;80.60;;;;;;10524702;28;20078;-67
2021/08/14 11:20:42;;;;;;;5.22;2.20;;;28.10;79.50;;;;;;10526729;28;20106;-67
2021/08/14 11:25:44;;;;;;;6.07;2.20;;;28.40;77.60;;;;;;10522458;28;20044;-66
2021/08/14 11:30:58;;;;;;;2.92;1.50;;;28.60;76.30;;;;;;10533118;28;20129;-67
2021/08/14 11:36:04;;;;;;;3.50;1.73;;;28.50;75.40;;;;;;10497243;28;20556;-66
2021/08/14 11:41:16;;;;;;;4.00;1.60;;;28.00;75.70;;;;;;10518492;28;20039;-66
2021/08/14 11:46:24;;;;;;;2.53;1.55;;;28.60;73.60;;;;;;10520423;28;20043;-67
2021/08/14 11:51:28;;;;;;;3.28;1.48;;;28.50;74.20;;;;;;10514179;28;20052;-67
2021/08/14 11:56:30;;;;;;;6.40;2.08;;;28.70;71.80;;;;;;10519084;28;20047;-67
2021/08/14 12:01:32;;;;;;;3.88;1.70;;;28.80;73.70;;;;;;10525185;28;20052;-66
2021/08/14 12:06:34;;;;;;;4.60;1.40;;;28.60;72.80;;;;;;10509773;28;20062;-66
2021/08/14 12:11:36;;;;;;;2.00;1.38;;;28.90;73.00;;;;;;10527052;28;20027;-66
2021/08/14 12:16:46;;;;;;;2.75;1.65;;;29.10;71.20;;;;;;10526250;28;20499;-67
2021/08/14 12:21:50;;;;;;;3.83;1.55;;;29.70;70.70;;;;;;10523903;28;20388;-67
2021/08/14 12:26:52;;;;;;;3.83;1.67;;;29.50;68.80;;;;;;10519977;28;20055;-67
2021/08/14 12:31:57;;;;;;;3.38;1.75;;;29.30;69.60;;;;;;10523105;28;20911;-67
2021/08/14 12:37:08;;;;;;;2.15;1.30;;;29.50;69.00;;;;;;10518093;28;20105;-67
2021/08/14 12:42:21;;;;;;;3.80;1.60;;;28.80;67.30;;;;;;10529081;28;20048;-67
2021/08/14 12:47:33;;;;;;;5.50;1.23;;;29.50;67.20;;;;;;10531975;28;20052;-67
2021/08/14 12:52:35;;;;;;;1.83;1.27;;;29.40;67.00;;;;;;10529850;28;20055;-65
2021/08/14 12:57:36;;;;;;;3.35;1.38;;;29.50;67.70;;;;;;10535223;28;20571;-67
2021/08/14 13:02:38;;;;;;;2.58;1.38;;;29.20;66.30;;;;;;10539394;28;20048;-66
2021/08/14 13:07:40;;;;;;;2.33;1.15;;;29.60;67.00;;;;;;10508453;28;20044;-67
2021/08/14 13:12:49;;;;;;;4.75;0.88;;;29.50;66.30;;;;;;10526474;28;20090;-66
2021/08/14 13:17:53;;;;;;;4.93;1.30;;;29.60;66.60;;;;;;10525433;28;20047;-66
2021/08/14 13:22:55;;;;;;;3.03;1.67;;;30.00;65.10;;;;;;10519999;28;20040;-66
2021/08/14 13:27:56;;;;;;;3.22;1.40;;;29.90;65.20;;;;;;10527691;28;20092;-66
2021/08/14 13:32:59;;;;;;;1.77;1.10;;;30.10;66.10;;;;;;10526104;28;20048;-66
2021/08/14 13:38:00;;;;;;;2.97;1.40;;;29.80;65.30;;;;;;10529045;28;20636;-66
2021/08/14 13:43:02;;;;;;;1.85;1.33;;;30.30;64.40;;;;;;10529677;28;20044;-66
2021/08/14 13:48:04;;;;;;;4.90;1.30;;;30.30;63.40;;;;;;10528066;28;20866;-66
2021/08/14 13:53:06;;;;;;;3.88;1.27;;;30.20;62.60;;;;;;10527632;28;20105;-66
2021/08/14 13:58:07;;;;;;;4.03;1.38;;;30.30;63.80;;;;;;10535451;28;20097;-67
2021/08/14 14:03:09;;;;;;;2.17;1.63;;;30.70;62.20;;;;;;10528761;28;20056;-66
2021/08/14 14:08:11;;;;;;;2.55;1.10;;;30.90;61.90;;;;;;10515164;28;20044;-66
2021/08/14 14:13:13;;;;;;;4.57;1.20;;;31.10;60.80;;;;;;10526848;28;20083;-66
2021/08/14 14:18:14;;;;;;;3.92;1.30;;;31.00;60.70;;;;;;10530774;28;20055;-65
2021/08/14 14:29:15;;;;;;;1.90;1.00;;;31.40;59.70;;;;;;10502264;28;20846;-62
2021/08/14 14:34:17;;;;;;;1.55;1.10;;;31.50;58.20;;;;;;10520499;28;20047;-62
2021/08/14 14:39:29;;;;;;;2.95;1.40;;;31.20;58.30;;;;;;10523369;28;20055;-63
2021/08/14 14:44:31;;;;;;;1.65;1.25;;;31.90;57.90;;;;;;10519960;28;20067;-62
2021/08/14 14:49:33;;;;;;;2.22;1.15;;;31.90;57.10;;;;;;10528503;28;20048;-62
2021/08/14 14:54:35;;;;;;;4.50;0.90;;;32.30;57.00;;;;;;10521541;28;20087;-63
2021/08/14 14:59:36;;;;;;;2.72;1.20;;;31.80;58.40;;;;;;10523359;28;20090;-61
2021/08/14 15:04:38;;;;;;;3.33;1.10;;;31.60;57.40;;;;;;10517994;28;20140;-61
2021/08/14 15:09:40;;;;;;;1.58;1.00;;;32.30;58.90;;;;;;10522891;28;20044;-62
2021/08/14 15:14:41;;;;;;;2.75;1.23;;;32.70;55.20;;;;;;10522631;28;20067;-62
2021/08/14 15:19:43;;;;;;;1.88;1.13;;;32.70;54.60;;;;;;10520327;28;20453;-62
2021/08/14 15:24:46;;;;;;;3.58;1.20;;;32.70;54.80;;;;;;10519841;28;20654;-61
2021/08/14 15:29:47;;;;;;;2.85;1.40;;;32.70;55.60;;;;;;10516072;28;20789;-62
2021/08/14 15:34:49;;;;;;;4.85;1.27;;;32.20;54.80;;;;;;10526317;28;20047;-62
2021/08/14 15:39:51;;;;;;;2.20;1.35;;;32.40;55.50;;;;;;10527147;28;20052;-61
2021/08/14 15:51:08;;;;;;;;;;;32.20;56.50;;;;;;10524859;28;20482;-62
2021/08/14 15:56:10;;;;;;;1.40;1.20;;;32.10;57.50;;;;;;10518995;28;20679;-62
2021/08/14 16:01:13;;;;;;;2.47;1.20;;;32.10;55.20;;;;;;10518315;28;20130;-63
2021/08/14 16:06:15;;;;;;;2.55;1.17;;;32.10;54.50;;;;;;10524610;28;20074;-65
2021/08/14 16:11:17;;;;;;;5.40;1.13;;;32.40;54.90;;;;;;10521353;28;20048;-64
2021/08/14 16:16:18;;;;;;;2.95;1.40;;;32.40;54.40;;;;;;10524159;28;20444;-65
2021/08/14 16:27:36;;;;;;;2.08;1.42;;;31.70;55.80;;;;;;10522868;28;20040;-65
2021/08/14 16:32:38;;;;;;;2.13;1.33;;;31.20;56.10;;;;;;10520850;28;20047;-65
2021/08/14 16:43:55;;;;;;;2.85;1.48;;;32.10;54.70;;;;;;10513626;28;20130;-64
2021/08/14 17:01:10;;;;;;;3.80;1.50;;;31.30;52.90;;;;;;10494522;28;19928;-62
2021/08/14 17:17:43;;;;;;;3.13;1.05;;;31.00;54.60;;;;;;10377628;28;20088;-63
2021/08/14 17:22:44;;;;;;;1.13;0.88;;;30.50;54.10;;;;;;10383165;28;20049;-62
2021/08/14 17:27:46;;;;;;;2.70;0.95;;;30.50;55.10;;;;;;10388346;28;20450;-62
2021/08/14 17:32:48;;;;;;;1.92;1.10;;;30.30;54.40;;;;;;10391807;28;20056;-60
2021/08/14 17:37:50;;;;;;;1.92;0.80;;;30.30;55.10;;;;;;10390424;28;20057;-62
2021/08/14 17:42:52;;;;;;;3.95;1.42;;;30.30;55.40;;;;;;10385473;28;20168;-62
2021/08/14 17:47:55;;;;;;;2.78;0.70;;;30.30;55.50;;;;;;10386807;28;20042;-61
2021/08/14 17:52:57;;;;;;;1.73;0.85;;;30.10;55.90;;;;;;10388199;28;20126;-62
2021/08/14 17:57:59;;;;;;;2.72;1.30;;;29.60;56.60;;;;;;10384973;28;20077;-61
2021/08/14 18:03:00;;;;;;;5.90;1.25;;;29.10;57.70;;;;;;10389353;28;20088;-61
2021/08/14 18:08:09;;;;;;;3.70;1.50;;;28.80;59.00;;;;;;10383902;28;20637;-61
2021/08/14 18:13:16;;;;;;;4.05;1.48;;;28.40;59.60;;;;;;10386018;28;20057;-61
2021/08/14 18:18:18;;;;;;;6.75;1.30;;;28.20;60.80;;;;;;10381200;28;20060;-61
2021/08/14 18:23:21;;;;;;;2.63;1.02;;;27.90;61.40;;;;;;10395456;28;20145;-61
2021/08/14 18:28:23;;;;;;;2.75;1.92;;;27.70;62.20;;;;;;10381473;28;20046;-61
2021/08/14 18:33:24;;;;;;;3.17;1.50;;;27.60;62.90;;;;;;10384441;28;20487;-62
2021/08/14 18:38:26;;;;;;;2.47;1.58;;;27.40;65.60;;;;;;10384790;28;20103;-61
2021/08/14 18:43:28;;;;;;;7.68;2.22;;;27.00;67.10;;;;;;10384360;28;20132;-60
2021/08/14 18:48:30;;;;;;;5.53;2.00;;;26.90;66.90;;;;;;10385059;28;20053;-60
2021/08/14 18:53:32;;;;;;;5.90;2.08;;;26.70;68.50;;;;;;10384330;28;20131;-61
2021/08/14 18:58:33;;;;;;;5.05;2.45;;;26.40;71.60;;;;;;10381745;28;20065;-60
2021/08/14 19:03:35;;;;;;;4.15;1.95;;;26.20;72.00;;;;;;10383013;28;20072;-60
2021/08/14 19:08:37;;;;;;;2.72;1.45;;;26.00;71.90;;;;;;10382071;28;20363;-60
2021/08/14 19:13:38;;;;;;;3.17;1.90;;;25.80;72.80;;;;;;10380656;28;20574;-60
2021/08/14 19:18:40;;;;;;;4.03;2.25;;;25.50;76.10;;;;;;10384438;28;20077;-61
2021/08/14 19:23:41;;;;;;;4.85;2.30;;;25.40;75.70;;;;;;10381941;28;20049;-60
2021/08/14 19:28:43;;;;;;;4.60;3.03;;;25.10;77.70;;;;;;10383457;28;20076;-60
2021/08/14 19:33:45;;;;;;;5.78;3.33;;;25.00;79.80;;;;;;10384887;28;20123;-60
2021/08/14 19:38:46;;;;;;;7.68;4.00;;;24.60;80.60;;;;;;10383803;28;20045;-61
2021/08/14 19:43:48;;;;;;;5.57;3.38;;;24.50;82.30;;;;;;10383409;28;20069;-60
2021/08/14 19:48:50;;;;;;;7.55;3.03;;;24.20;84.00;;;;;;10381212;28;20072;-60
2021/08/14 19:53:51;;;;;;;6.97;2.58;;;24.10;86.30;;;;;;10388800;28;20053;-60
2021/08/14 19:58:54;;;;;;;5.70;3.40;;;23.90;87.60;;;;;;10382603;28;20084;-60
2021/08/14 20:03:56;;;;;;;6.53;3.70;;;23.80;89.40;;;;;;10382141;28;20041;-60
2021/08/14 20:08:57;;;;;;;7.05;3.72;;;23.60;90.20;;;;;;10382828;28;20083;-60
2021/08/14 20:13:59;;;;;;;6.55;3.65;;;23.40;90.80;;;;;;10382949;28;20557;-60
2021/08/14 20:19:00;;;;;;;8.18;3.35;;;23.30;91.20;;;;;;10379481;28;20480;-60
2021/08/14 20:24:02;;;;;;;8.77;4.22;;;23.10;91.60;;;;;;10382706;28;20122;-60
2021/08/14 20:29:04;;;;;;;6.53;3.47;;;23.00;92.00;;;;;;10382663;28;20431;-60
2021/08/14 20:34:06;;;;;;;9.40;4.20;;;22.80;93.40;;;;;;10382481;28;20049;-60
2021/08/14 20:39:11;;;;;;;9.55;5.57;;;22.80;95.00;;;;;;10383068;28;20151;-60
2021/08/14 20:44:13;;;;;;;11.00;6.72;;;22.60;95.80;;;;;;10381725;28;20138;-60
2021/08/14 20:49:15;;;;;;;10.27;5.45;;;22.50;96.70;;;;;;10382915;28;20045;-61
2021/08/14 20:54:16;;;;;;;7.60;4.20;;;22.40;96.90;;;;;;10384099;28;20091;-60
2021/08/14 20:59:18;;;;;;;6.95;3.83;;;22.20;97.30;;;;;;10386300;28;20107;-61
2021/08/14 21:04:20;;;;;;;8.07;3.30;;;22.10;97.50;;;;;;10389339;28;20127;-61
2021/08/14 21:09:21;;;;;;;5.85;2.58;;;22.00;97.40;;;;;;10386956;28;20388;-60
2021/08/14 21:14:23;;;;;;;7.25;2.20;;;21.90;96.30;;;;;;10389158;28;20073;-60
2021/08/14 21:19:25;;;;;;;4.22;2.13;;;21.80;96.40;;;;;;10391193;28;21157;-60
2021/08/14 21:24:26;;;;;;;4.13;2.08;;;21.80;96.10;;;;;;10278126;28;68564;-60
2021/08/14 21:32:10;;;;;;;9.20;2.50;;;21.80;95.50;;;;;;10352335;28;20359;-61
2021/08/14 21:37:12;;;;;;;6.22;2.60;;;21.60;95.40;;;;;;10348257;28;20124;-60
2021/08/14 21:42:13;;;;;;;6.20;2.38;;;21.50;95.20;;;;;;10349310;28;20050;-61
2021/08/14 21:47:18;;;;;;;3.42;1.80;;;21.50;94.40;;;;;;10345213;28;20128;-61
2021/08/14 21:52:20;;;;;;;5.07;2.47;;;21.50;94.30;;;;;;10347811;28;20058;-60
2021/08/14 21:57:21;;;;;;;4.07;1.98;;;21.50;93.80;;;;;;10351187;28;20150;-60
2021/08/14 22:02:23;;;;;;;5.03;2.40;;;21.50;93.20;;;;;;10347711;28;20491;-62
2021/08/14 22:07:25;;;;;;;2.78;1.35;;;21.50;93.00;;;;;;10346938;28;20050;-62
2021/08/14 22:12:27;;;;;;;7.07;1.75;;;21.50;92.50;;;;;;10363286;28;20463;-64
2021/08/14 22:17:28;;;;;;;8.35;1.90;;;21.50;92.60;;;;;;10390469;28;20069;-61
2021/08/14 22:22:30;;;;;;;6.47;1.50;;;21.50;92.60;;;;;;10393132;28;20049;-61
2021/08/14 22:27:32;;;;;;;9.20;1.90;;;21.40;92.40;;;;;;10392330;28;20132;-61
2021/08/14 22:32:34;;;;;;;6.38;1.75;;;21.40;92.30;;;;;;10390867;28;20556;-61
2021/08/14 22:37:49;;;;;;;5.10;1.27;;;21.40;91.60;;;;;;10395828;28;20167;-62
2021/08/14 22:42:52;;;;;;;6.60;1.38;;;21.40;91.40;;;;;;10365795;28;20128;-62
2021/08/14 22:47:54;;;;;;;4.22;1.63;;;21.30;91.00;;;;;;10360425;28;20163;-62
2021/08/14 22:52:56;;;;;;;5.35;1.85;;;21.30;90.60;;;;;;10365557;28;20046;-62
2021/08/14 22:57:58;;;;;;;4.68;1.58;;;21.30;90.50;;;;;;10362301;28;20045;-61
2021/08/14 23:03:00;;;;;;;6.68;1.65;;;21.30;90.40;;;;;;10357462;28;20061;-61
2021/08/14 23:08:02;;;;;;;3.63;1.13;;;21.20;90.30;;;;;;10364858;28;20050;-61
2021/08/14 23:13:04;;;;;;;3.10;1.30;;;21.10;90.40;;;;;;10363904;28;20601;-61
2021/08/14 23:18:05;;;;;;;4.28;1.30;;;21.00;90.60;;;;;;10361506;28;20500;-61
2021/08/14 23:23:07;;;;;;;4.60;1.30;;;20.90;91.10;;;;;;10365734;28;20073;-61
2021/08/14 23:28:09;;;;;;;3.20;1.10;;;20.80;91.30;;;;;;10363895;28;20541;-61
2021/08/14 23:33:12;;;;;;;3.72;1.00;;;20.60;91.20;;;;;;10361403;28;20069;-61
2021/08/14 23:38:13;;;;;;;3.45;1.13;;;20.60;90.70;;;;;;10368511;28;20046;-61
2021/08/14 23:43:15;;;;;;;4.72;1.02;;;20.70;90.30;;;;;;10358851;28;20135;-61
2021/08/14 23:48:17;;;;;;;6.22;1.10;;;20.70;90.10;;;;;;10360730;28;20127;-61
2021/08/14 23:53:18;;;;;;;3.65;1.02;;;20.80;89.20;;;;;;10364376;28;20102;-61
2021/08/14 23:58:20;;;;;;;3.50;1.67;;;20.80;89.30;;;;;;10357651;28;20112;-62
